createdAt,value
2019-06-07T00:00:40.503Z,16.22
2019-06-07T00:03:23.975Z,15.45
2019-06-07T00:05:46.619Z,16.09
2019-06-07T00:08:24.947Z,16.28
2019-06-07T00:10:53.971Z,16.23
2019-06-07T00:13:25.023Z,16.35
2019-06-07T00:15:56.082Z,16.21
2019-06-07T00:18:26.346Z,16.29
2019-06-07T00:20:58.463Z,16.09
2019-06-07T00:23:30.112Z,16.06
2019-06-07T00:26:00.966Z,16.17
2019-06-07T00:28:35.280Z,16.12
2019-06-07T00:31:11.394Z,16.08
2019-06-07T00:33:44.538Z,16.00
2019-06-07T00:36:20.707Z,15.90
2019-06-07T00:38:53.647Z,15.86
2019-06-07T00:41:23.614Z,15.89
2019-06-07T00:44:00.086Z,15.97
2019-06-07T00:46:45.878Z,15.99
2019-06-07T00:49:34.876Z,15.96
2019-06-07T00:51:53.831Z,15.90
2019-06-07T00:54:25.314Z,16.05
2019-06-07T00:57:02.586Z,15.96
2019-06-07T00:59:36.451Z,15.86
2019-06-07T01:02:06.913Z,15.91
2019-06-07T01:04:38.517Z,15.95
2019-06-07T01:07:08.986Z,15.89
2019-06-07T01:09:53.565Z,15.93
2019-06-07T01:12:26.652Z,16.05
2019-06-07T01:15:01.048Z,15.99
2019-06-07T01:17:49.987Z,15.81
2019-06-07T01:20:22.787Z,15.84
2019-06-07T01:22:55.367Z,15.75
2019-06-07T01:25:34.211Z,15.80
2019-06-07T01:28:04.982Z,15.84
2019-06-07T01:30:36.677Z,15.87
2019-06-07T01:33:10.645Z,15.90
2019-06-07T01:35:43.937Z,15.98
2019-06-07T01:38:13.973Z,16.04
2019-06-07T01:40:44.739Z,15.91
2019-06-07T01:43:31.006Z,15.88
2019-06-07T01:46:16.074Z,15.96
2019-06-07T01:48:54.067Z,15.87
2019-06-07T01:51:27.918Z,15.88
2019-06-07T01:54:48.836Z,15.78
2019-06-07T01:56:37.024Z,15.84
2019-06-07T01:59:13.456Z,15.87
2019-06-07T02:01:44.135Z,15.85
2019-06-07T02:04:21.581Z,15.86
2019-06-07T02:06:55.209Z,15.67
2019-06-07T02:09:31.566Z,15.63
2019-06-07T02:11:59.890Z,15.65
2019-06-07T02:14:39.160Z,15.56
2019-06-07T02:17:30.934Z,15.57
2019-06-07T02:20:05.319Z,15.45
2019-06-07T02:22:46.861Z,15.26
2019-06-07T02:25:48.713Z,15.32
2019-06-07T02:28:26.742Z,15.33
2019-06-07T02:30:44.930Z,15.23
2019-06-07T02:33:08.316Z,14.71
2019-06-07T02:35:40.922Z,15.30
2019-06-07T02:38:17.160Z,15.35
2019-06-07T02:40:48.025Z,15.49
2019-06-07T02:43:36.250Z,15.37
2019-06-07T02:46:25.130Z,15.36
2019-06-07T02:48:40.631Z,15.38
2019-06-07T02:51:12.776Z,15.40
2019-06-07T02:53:45.416Z,15.33
2019-06-07T02:58:48.204Z,15.34
2019-06-07T03:01:22.464Z,15.45
2019-06-07T03:03:53.556Z,15.36
2019-06-07T03:06:29.662Z,15.32
2019-06-07T03:08:57.666Z,15.38
2019-06-07T03:11:32.330Z,15.25
2019-06-07T03:14:04.092Z,15.15
2019-06-07T03:16:46.306Z,15.20
2019-06-07T03:19:37.297Z,14.95
2019-06-07T03:22:17.685Z,14.84
2019-06-07T03:31:20.952Z,14.88
2019-06-07T03:33:50.764Z,14.91
2019-06-07T03:36:32.138Z,14.89
2019-06-07T03:39:02.043Z,14.92
2019-06-07T03:41:49.915Z,14.84
2019-06-07T03:44:16.065Z,14.91
2019-06-07T03:46:48.134Z,14.98
2019-06-07T03:49:20.841Z,15.00
2019-06-07T03:51:53.997Z,14.98
2019-06-07T03:54:27.256Z,14.96
2019-06-07T03:56:57.065Z,14.95
2019-06-07T03:59:36.212Z,15.01
2019-06-07T04:02:12.896Z,14.93
2019-06-07T04:04:42.881Z,14.97
2019-06-07T04:07:12.748Z,14.79
2019-06-07T04:09:51.773Z,14.87
2019-06-07T04:12:23.124Z,15.00
2019-06-07T04:14:56.784Z,15.03
2019-06-07T04:17:33.776Z,15.03
2019-06-07T04:20:07.141Z,15.08
2019-06-07T04:22:40.490Z,15.16
2019-06-07T04:25:22.126Z,15.32
2019-06-07T04:27:56.019Z,15.27
2019-06-07T04:31:04.509Z,15.21
2019-06-07T04:33:39.752Z,15.30
2019-06-07T04:36:08.784Z,15.31
2019-06-07T04:38:42.944Z,15.15
2019-06-07T04:41:15.359Z,15.29
2019-06-07T04:43:49.343Z,15.13
2019-06-07T04:46:25.372Z,15.17
2019-06-07T04:48:58.709Z,15.23
2019-06-07T04:51:31.939Z,15.04
2019-06-07T04:54:03.562Z,15.07
2019-06-07T04:56:43.764Z,15.14
2019-06-07T04:59:10.059Z,15.21
2019-06-07T05:01:42.631Z,15.26
2019-06-07T05:04:11.474Z,15.32
2019-06-07T05:06:44.762Z,15.22
2019-06-07T05:09:14.282Z,15.05
2019-06-07T05:11:45.031Z,15.15
2019-06-07T05:14:14.826Z,15.16
2019-06-07T05:16:44.917Z,15.23
2019-06-07T05:19:14.612Z,15.29
2019-06-07T05:22:02.456Z,15.12
2019-06-07T05:24:17.220Z,15.19
2019-06-07T05:26:47.539Z,15.30
2019-06-07T05:29:17.754Z,15.32
2019-06-07T05:31:50.676Z,15.40
2019-06-07T05:34:20.427Z,15.36
2019-06-07T05:37:11.177Z,15.36
2019-06-07T05:39:26.168Z,15.42
2019-06-07T05:42:01.911Z,15.42
2019-06-07T05:44:32.226Z,15.43
2019-06-07T05:47:02.066Z,15.45
2019-06-07T05:49:32.932Z,15.59
2019-06-07T05:52:04.201Z,15.48
2019-06-07T05:54:35.131Z,15.42
2019-06-07T05:57:06.143Z,15.47
2019-06-07T05:59:38.298Z,15.61
2019-06-07T06:02:21.821Z,15.68
2019-06-07T06:04:45.832Z,15.59
2019-06-07T06:07:12.432Z,15.59
2019-06-07T06:09:43.194Z,15.55
2019-06-07T06:12:33.405Z,15.51
2019-06-07T06:14:47.082Z,15.62
2019-06-07T06:17:17.347Z,15.70
2019-06-07T06:19:52.403Z,15.63
2019-06-07T06:22:18.502Z,15.64
2019-06-07T06:25:28.821Z,15.57
2019-06-07T06:28:02.553Z,15.41
2019-06-07T06:29:52.472Z,14.90
2019-06-07T06:34:55.972Z,15.32
2019-06-07T06:37:25.587Z,15.34
2019-06-07T06:39:56.662Z,15.31
2019-06-07T06:42:26.291Z,15.30
2019-06-07T06:44:56.039Z,15.20
2019-06-07T06:47:25.813Z,15.41
2019-06-07T06:49:55.708Z,15.59
2019-06-07T06:52:26.179Z,15.64
2019-06-07T06:55:00.778Z,15.58
2019-06-07T06:57:27.827Z,15.62
2019-06-07T06:59:59.399Z,15.73
2019-06-07T07:02:31.459Z,15.60
2019-06-07T07:05:01.406Z,15.36
2019-06-07T07:07:31.621Z,15.31
2019-06-07T07:10:03.172Z,15.34
2019-06-07T07:12:33.422Z,15.40
2019-06-07T07:15:03.997Z,15.52
2019-06-07T07:17:50.472Z,15.39
2019-06-07T07:20:08.814Z,15.62
2019-06-07T07:22:39.790Z,15.62
2019-06-07T07:25:10.160Z,15.46
2019-06-07T07:27:40.602Z,15.61
2019-06-07T07:30:36.263Z,15.68
2019-06-07T07:32:45.560Z,15.88
2019-06-07T07:35:13.737Z,15.85
2019-06-07T07:37:43.746Z,15.90
2019-06-07T07:40:56.302Z,15.86
2019-06-07T07:42:47.547Z,15.98
2019-06-07T07:45:17.521Z,15.96
2019-06-07T07:48:03.428Z,16.00
2019-06-07T07:50:18.816Z,15.99
2019-06-07T07:52:53.464Z,15.97
2019-06-07T07:55:19.970Z,15.84
2019-06-07T07:57:58.076Z,15.90
2019-06-07T08:00:50.377Z,15.98
2019-06-07T08:02:58.702Z,15.93
2019-06-07T08:05:41.964Z,15.85
2019-06-07T08:08:01.621Z,15.98
2019-06-07T08:10:28.719Z,16.07
2019-06-07T08:13:22.124Z,15.79
2019-06-07T08:15:29.922Z,15.99
2019-06-07T08:18:03.855Z,16.08
2019-06-07T08:20:30.675Z,16.19
2019-06-07T08:23:01.323Z,16.31
2019-06-07T08:25:31.264Z,16.31
2019-06-07T08:28:01.186Z,16.46
2019-06-07T08:30:50.500Z,16.44
2019-06-07T08:33:24.807Z,16.43
2019-06-07T08:38:24.128Z,16.15
2019-06-07T08:40:37.869Z,16.25
2019-06-07T08:43:19.629Z,16.15
2019-06-07T08:45:39.886Z,15.95
2019-06-07T08:48:27.026Z,16.00
2019-06-07T08:50:40.850Z,15.97
2019-06-07T08:53:12.097Z,16.02
2019-06-07T08:55:42.064Z,16.03
2019-06-07T08:58:13.393Z,16.00
2019-06-07T09:00:47.996Z,16.06
2019-06-07T09:03:19.629Z,16.07
2019-06-07T09:05:53.416Z,15.99
2019-06-07T09:08:29.802Z,15.90
2019-06-07T09:10:59.537Z,15.93
2019-06-07T09:13:29.544Z,16.06
2019-06-07T09:16:04.863Z,16.17
2019-06-07T09:18:43.180Z,16.36
2019-06-07T09:21:09.054Z,16.47
2019-06-07T09:23:37.359Z,16.42
2019-06-07T09:26:18.296Z,16.31
2019-06-07T09:28:43.216Z,16.45
2019-06-07T09:31:13.189Z,16.65
2019-06-07T09:33:43.466Z,16.53
2019-06-07T09:36:13.735Z,16.28
2019-06-07T09:38:44.830Z,16.38
2019-06-07T09:41:14.838Z,16.44
2019-06-07T09:44:09.948Z,16.45
2019-06-07T09:46:18.451Z,16.36
2019-06-07T09:51:21.799Z,16.62
2019-06-07T09:53:52.949Z,16.77
2019-06-07T09:56:23.945Z,16.82
2019-06-07T09:58:54.450Z,16.86
2019-06-07T10:01:25.079Z,16.93
2019-06-07T10:03:54.911Z,17.11
2019-06-07T10:06:25.725Z,17.28
2019-06-07T10:11:29.199Z,17.39
2019-06-07T10:14:02.406Z,17.36
2019-06-07T10:16:45.963Z,17.22
2019-06-07T10:19:05.637Z,17.17
2019-06-07T10:21:35.733Z,17.13
2019-06-07T10:24:05.616Z,17.18
2019-06-07T10:26:37.747Z,17.36
2019-06-07T10:29:09.086Z,17.42
2019-06-07T10:31:40.491Z,17.46
2019-06-07T10:34:10.866Z,17.63
2019-06-07T10:36:42.684Z,17.72
2019-06-07T10:39:13.396Z,17.85
2019-06-07T10:41:43.357Z,17.47
2019-06-07T10:44:13.220Z,17.58
2019-06-07T10:46:43.038Z,17.65
2019-06-07T10:49:13.942Z,17.82
2019-06-07T10:51:45.622Z,17.86
2019-06-07T10:54:27.878Z,17.77
2019-06-07T10:56:48.402Z,17.99
2019-06-07T10:59:20.406Z,18.03
2019-06-07T11:01:51.013Z,17.89
2019-06-07T11:04:21.898Z,17.89
2019-06-07T11:06:51.656Z,17.86
2019-06-07T11:09:21.314Z,17.96
2019-06-07T11:11:51.006Z,17.99
2019-06-07T11:14:21.343Z,17.95
2019-06-07T11:16:52.620Z,18.13
2019-06-07T11:19:22.219Z,18.05
2019-06-07T11:21:52.944Z,17.98
2019-06-07T11:24:24.742Z,18.16
2019-06-07T11:26:56.130Z,18.30
2019-06-07T11:29:26.016Z,18.27
2019-06-07T11:31:55.691Z,18.33
2019-06-07T11:34:29.113Z,18.26
2019-06-07T11:36:59.839Z,18.29
2019-06-07T11:39:29.669Z,18.60
2019-06-07T11:42:00.135Z,18.64
2019-06-07T11:44:29.777Z,18.39
2019-06-07T11:47:01.402Z,18.44
2019-06-07T11:49:32.776Z,18.45
2019-06-07T11:52:03.583Z,18.38
2019-06-07T11:54:34.105Z,18.29
2019-06-07T11:57:05.109Z,18.51
2019-06-07T11:59:34.744Z,18.78
2019-06-07T12:02:07.107Z,18.82
2019-06-07T12:04:36.754Z,18.39
2019-06-07T12:07:10.171Z,18.16
2019-06-07T12:09:38.089Z,18.29
2019-06-07T12:12:10.342Z,18.50
2019-06-07T12:14:40.454Z,18.53
2019-06-07T12:17:11.256Z,18.57
2019-06-07T12:19:43.434Z,18.56
2019-06-07T12:22:14.216Z,18.61
2019-06-07T12:24:44.445Z,18.79
2019-06-07T12:27:14.772Z,18.84
2019-06-07T12:29:44.566Z,18.97
2019-06-07T12:32:15.354Z,19.11
2019-06-07T12:34:45.455Z,19.10
2019-06-07T12:37:19.338Z,19.19
2019-06-07T12:39:47.863Z,19.05
2019-06-07T12:42:18.527Z,19.13
2019-06-07T12:44:48.508Z,19.21
2019-06-07T12:47:18.917Z,19.05
2019-06-07T12:49:51.770Z,18.80
2019-06-07T12:52:22.993Z,18.73
2019-06-07T12:54:53.463Z,18.83
2019-06-07T12:57:24.238Z,18.63
2019-06-07T12:59:54.407Z,18.85
2019-06-07T13:02:25.562Z,19.00
2019-06-07T13:04:56.786Z,19.12
2019-06-07T13:07:28.705Z,19.12
2019-06-07T13:09:58.614Z,19.10
2019-06-07T13:12:29.258Z,18.87
2019-06-07T13:15:01.773Z,19.15
2019-06-07T13:17:31.738Z,19.34
2019-06-07T13:20:02.587Z,19.50
2019-06-07T13:22:33.183Z,19.34
2019-06-07T13:25:03.059Z,19.35
2019-06-07T13:27:34.309Z,19.50
2019-06-07T13:30:10.320Z,19.49
2019-06-07T13:32:38.113Z,19.67
2019-06-07T13:35:08.671Z,19.25
2019-06-07T13:37:38.717Z,19.59
2019-06-07T13:40:08.781Z,19.74
2019-06-07T13:42:38.640Z,19.48
2019-06-07T13:45:09.255Z,19.51
2019-06-07T13:47:41.125Z,19.22
2019-06-07T13:50:10.993Z,19.49
2019-06-07T13:52:42.098Z,19.83
2019-06-07T13:55:12.189Z,19.71
2019-06-07T13:57:44.135Z,19.22
2019-06-07T14:00:14.995Z,19.49
2019-06-07T14:02:44.595Z,19.56
2019-06-07T14:05:15.849Z,19.80
2019-06-07T14:07:46.682Z,19.98
2019-06-07T14:10:17.147Z,19.73
2019-06-07T14:12:49.751Z,19.57
2019-06-07T14:15:20.472Z,19.46
2019-06-07T14:17:52.121Z,19.54
2019-06-07T14:20:26.783Z,19.27
2019-06-07T14:22:58.945Z,19.17
2019-06-07T14:25:31.963Z,19.56
2019-06-07T14:28:09.370Z,19.38
2019-06-07T14:30:35.998Z,18.67
2019-06-07T14:33:06.354Z,19.46
2019-06-07T14:35:42.530Z,19.38
2019-06-07T14:38:13.260Z,19.17
2019-06-07T14:40:45.915Z,19.15
2019-06-07T14:43:27.665Z,19.41
2019-06-07T14:46:00.816Z,19.55
2019-06-07T14:48:30.564Z,19.40
2019-06-07T14:51:03.812Z,19.72
2019-06-07T14:53:39.407Z,19.72
2019-06-07T14:56:10.263Z,19.72
2019-06-07T14:58:43.493Z,19.72
2019-06-07T15:01:22.684Z,19.85
2019-06-07T15:03:53.124Z,19.97
2019-06-07T15:06:24.271Z,20.17
2019-06-07T15:09:01.674Z,20.29
2019-06-07T15:11:43.999Z,19.98
2019-06-07T15:14:16.882Z,19.82
2019-06-07T15:16:48.267Z,20.02
2019-06-07T15:19:24.160Z,20.13
2019-06-07T15:21:56.596Z,20.15
2019-06-07T15:24:26.181Z,20.15
2019-06-07T15:26:55.942Z,20.10
2019-06-07T15:29:25.845Z,20.17
2019-06-07T15:31:55.868Z,20.19
2019-06-07T15:34:25.779Z,20.06
2019-06-07T15:36:56.817Z,20.03
2019-06-07T15:39:28.408Z,20.21
2019-06-07T15:41:58.467Z,20.19
2019-06-07T15:44:29.097Z,20.19
2019-06-07T15:46:58.907Z,20.24
2019-06-07T15:49:30.300Z,20.40
2019-06-07T15:52:00.234Z,20.50
2019-06-07T15:54:30.242Z,20.46
2019-06-07T15:57:01.338Z,20.27
2019-06-07T15:59:31.116Z,20.21
2019-06-07T16:02:00.729Z,20.23
2019-06-07T16:04:31.346Z,20.33
2019-06-07T16:07:04.595Z,20.52
2019-06-07T16:09:34.389Z,20.55
2019-06-07T16:12:04.684Z,20.62
2019-06-07T16:14:35.118Z,20.51
2019-06-07T16:17:05.023Z,20.63
2019-06-07T16:19:39.304Z,20.63
2019-06-07T16:22:06.419Z,20.59
2019-06-07T16:24:37.690Z,20.34
2019-06-07T16:27:07.749Z,20.23
2019-06-07T16:29:38.646Z,20.23
2019-06-07T16:32:08.703Z,20.36
2019-06-07T16:34:39.884Z,20.62
2019-06-07T16:37:11.103Z,20.56
2019-06-07T16:39:40.855Z,20.53
2019-06-07T16:42:10.761Z,20.44
2019-06-07T16:44:40.886Z,20.40
2019-06-07T16:47:10.766Z,20.40
2019-06-07T16:49:42.956Z,20.33
2019-06-07T16:52:13.158Z,20.41
2019-06-07T16:54:43.600Z,20.26
2019-06-07T16:57:14.322Z,20.07
2019-06-07T16:59:47.775Z,20.16
2019-06-07T17:02:15.748Z,20.16
2019-06-07T17:04:45.801Z,20.06
2019-06-07T17:07:15.630Z,20.15
2019-06-07T17:09:47.324Z,20.19
2019-06-07T17:12:17.436Z,20.07
2019-06-07T17:14:48.823Z,19.95
2019-06-07T17:17:18.713Z,19.86
2019-06-07T17:19:49.283Z,19.97
2019-06-07T17:22:19.080Z,19.94
2019-06-07T17:24:49.909Z,20.03
2019-06-07T17:27:19.651Z,19.80
2019-06-07T17:29:51.580Z,19.61
2019-06-07T17:32:21.854Z,19.46
2019-06-07T17:34:52.549Z,19.34
2019-06-07T17:37:25.213Z,19.41
2019-06-07T17:39:55.270Z,19.38
2019-06-07T17:42:25.101Z,19.17
2019-06-07T17:44:57.890Z,19.30
2019-06-07T17:47:29.235Z,19.26
2019-06-07T17:49:59.909Z,19.16
2019-06-07T17:52:29.685Z,18.92
2019-06-07T17:54:59.969Z,18.88
2019-06-07T17:57:30.904Z,19.04
2019-06-07T18:00:27.106Z,19.11
2019-06-07T18:02:32.267Z,19.16
2019-06-07T18:05:02.813Z,19.22
2019-06-07T18:07:33.866Z,19.23
2019-06-07T18:10:05.653Z,19.19
2019-06-07T18:12:35.490Z,19.09
2019-06-07T18:15:16.131Z,19.01
2019-06-07T18:17:48.548Z,19.01
2019-06-07T18:20:27.412Z,19.05
2019-06-07T18:23:00.059Z,18.87
2019-06-07T18:25:30.462Z,18.86
2019-06-07T18:28:04.668Z,18.65
2019-06-07T18:30:36.914Z,18.80
2019-06-07T18:33:10.523Z,18.77
2019-06-07T18:35:43.281Z,18.80
2019-06-07T18:38:16.148Z,18.75
2019-06-07T18:40:47.151Z,18.81
2019-06-07T18:43:18.222Z,18.83
2019-06-07T18:45:51.482Z,18.75
2019-06-07T18:48:25.246Z,18.72
2019-06-07T18:50:59.063Z,18.61
2019-06-07T18:53:37.110Z,18.58
2019-06-07T18:56:09.421Z,18.59
2019-06-07T18:58:40.342Z,18.44
2019-06-07T19:01:13.142Z,18.38
2019-06-07T19:03:42.758Z,18.39
2019-06-07T19:06:13.010Z,18.24
2019-06-07T19:08:48.435Z,18.31
2019-06-07T19:11:21.762Z,18.16
2019-06-07T19:13:52.988Z,18.20
2019-06-07T19:16:25.960Z,18.22
2019-06-07T19:19:03.379Z,18.14
2019-06-07T19:21:35.924Z,17.89
2019-06-07T19:24:06.393Z,17.95
2019-06-07T19:26:37.700Z,17.85
2019-06-07T19:29:07.728Z,18.00
2019-06-07T19:31:38.226Z,18.01
2019-06-07T19:34:08.091Z,17.95
2019-06-07T19:36:51.510Z,17.84
2019-06-07T19:39:24.001Z,17.65
2019-06-07T19:41:54.289Z,17.76
2019-06-07T19:44:25.774Z,17.54
2019-06-07T19:47:00.618Z,17.60
2019-06-07T19:49:30.463Z,17.55
2019-06-07T19:52:07.725Z,17.58
2019-06-07T19:54:41.128Z,17.68
2019-06-07T19:57:12.480Z,17.64
2019-06-07T19:59:45.194Z,17.62
2019-06-07T20:02:20.128Z,17.58
2019-06-07T20:04:51.172Z,17.50
2019-06-07T20:07:21.038Z,17.51
2019-06-07T20:09:52.400Z,17.47
2019-06-07T20:12:24.089Z,17.42
2019-06-07T20:15:17.517Z,17.42
2019-06-07T20:17:31.137Z,17.39
2019-06-07T20:20:02.845Z,17.19
2019-06-07T20:22:32.436Z,17.27
2019-06-07T20:25:03.176Z,17.39
2019-06-07T20:27:33.271Z,17.32
2019-06-07T20:30:04.400Z,17.36
2019-06-07T20:32:34.846Z,17.40
2019-06-07T20:35:06.086Z,17.35
2019-06-07T20:37:37.675Z,17.25
2019-06-07T20:40:22.765Z,17.38
2019-06-07T20:42:43.825Z,17.36
2019-06-07T20:45:15.121Z,17.39
2019-06-07T20:47:47.344Z,17.22
2019-06-07T20:50:17.407Z,17.27
2019-06-07T20:52:48.245Z,17.28
2019-06-07T20:55:19.263Z,17.34
2019-06-07T20:57:50.630Z,17.32
2019-06-07T21:00:22.075Z,17.26
2019-06-07T21:02:54.664Z,17.26
2019-06-07T21:05:24.409Z,17.21
2019-06-07T21:07:54.234Z,17.16
2019-06-07T21:10:26.500Z,17.16
2019-06-07T21:12:59.697Z,17.14
2019-06-07T21:15:31.167Z,17.16
2019-06-07T21:18:08.667Z,17.17
2019-06-07T21:20:36.643Z,17.18
2019-06-07T21:23:07.094Z,17.10
2019-06-07T21:25:41.504Z,17.11
2019-06-07T21:28:14.274Z,17.10
2019-06-07T21:30:44.787Z,17.07
2019-06-07T21:33:15.491Z,17.03
2019-06-07T21:35:45.102Z,17.04
2019-06-07T21:38:20.768Z,17.06
2019-06-07T21:40:57.654Z,17.00
2019-06-07T21:43:28.579Z,16.99
2019-06-07T21:46:05.443Z,16.28
2019-06-07T21:48:38.709Z,16.94
2019-06-07T21:51:12.719Z,16.88
2019-06-07T21:53:45.791Z,16.87
2019-06-07T21:56:17.335Z,16.89
2019-06-07T21:58:47.870Z,16.90
2019-06-07T22:01:37.014Z,16.90
2019-06-07T22:04:09.657Z,16.91
2019-06-07T22:06:44.462Z,16.89
2019-06-07T22:09:21.907Z,16.88
2019-06-07T22:11:55.614Z,16.89
2019-06-07T22:14:32.572Z,16.95
2019-06-07T22:17:04.324Z,16.98
2019-06-07T22:19:54.704Z,16.96
2019-06-07T22:22:32.566Z,16.93
2019-06-07T22:25:03.360Z,16.89
2019-06-07T22:27:36.806Z,16.90
2019-06-07T22:30:12.605Z,16.88
2019-06-07T22:32:45.666Z,16.87
2019-06-07T22:35:17.615Z,16.82
2019-06-07T22:37:52.473Z,16.81
2019-06-07T22:40:24.184Z,16.81
2019-06-07T22:42:54.533Z,16.77
2019-06-07T22:45:34.149Z,16.76
2019-06-07T22:48:05.133Z,16.71
2019-06-07T22:50:36.518Z,16.72
2019-06-07T22:53:07.360Z,16.70
2019-06-07T22:55:43.779Z,16.70
2019-06-07T22:58:18.988Z,16.71
2019-06-07T23:00:50.746Z,16.63
2019-06-07T23:03:23.437Z,16.55
2019-06-07T23:05:53.721Z,16.49
2019-06-07T23:08:24.694Z,16.34
2019-06-07T23:10:56.727Z,16.26
2019-06-07T23:13:29.633Z,16.17
2019-06-07T23:16:01.633Z,16.07
2019-06-07T23:18:32.280Z,16.00
2019-06-07T23:21:02.053Z,15.95
2019-06-07T23:23:32.617Z,15.90
2019-06-07T23:26:02.882Z,15.93
2019-06-07T23:28:33.191Z,15.96
2019-06-07T23:31:04.902Z,16.00
2019-06-07T23:33:35.873Z,16.07
2019-06-07T23:36:07.814Z,16.09
2019-06-07T23:38:43.199Z,16.13
2019-06-07T23:41:15.603Z,16.00
2019-06-07T23:43:50.317Z,15.87
2019-06-07T23:46:21.727Z,15.16
2019-06-07T23:48:52.612Z,15.62
2019-06-07T23:51:24.665Z,15.46
2019-06-07T23:53:57.051Z,15.26
2019-06-07T23:56:29.669Z,15.19
2019-06-07T23:59:01.933Z,15.18
